Hovedside
METAR-TAF:

METAR-TAF

Lufthavner :

Flystasjon

Ämari, Estland

breddegrad: 59-15-44N, lengdegrad: 24-13-07E, høyde over havet: 20 m

Gjeldene værobservasjon

Denne rapporten ble laget for 37 minutter siden, klokken 16:50 UTC
Vind 7 kt fra Vest-nordvest, skiftende mellom Vest-sørvest og Nordvest
Temperatur 21°C
Luftfuktighet 60%
Trykk 1017 hPa
Sikt 10 km eller mer
ingen skyer under 1500 m og ingen bygeskyer

METAR: EEEI 241650Z AUTO 29007KT 250V320 CAVOK 21/13 Q1017

Tid: 20:27 (17:27 UTC)


TAF: fraværende

Værobservasjoner og værvarsel for over 4000 flyplasser (METAR- og TAF-rapporter).

Tilgjengelige stasjoner er representert av de røde og gule prikkene på kartet.

Hold musepekeren over prikken for å se navnet på stasjonen.

Klikk så for å se værobservasjoner og -varsler.

For å forandre kartet kan du klikke på den grønne knappen med svart kryss for å zoome inn, på den grønne knappen med strek for å zoome ut, eller på de grønne pilene for å se tilstøtende kart.


METAR-TAF: